Airway Heights, WA

6:01 AM PDT on October 20, 2014 (GMT -0700)
Spokane International | Change Station
CLOSE
Current Station
Airport
Location: Spokane,
Elevation: 2365 ft
Nearby Weather Stations

Elev 2365 ft 47.62 °N, 117.53 °W | Updated 8 minutes ago

Clear
Clear
47 °F
Feels Like 47 °F
N
6
Wind Variable Wind from ENE

Today
High -- | Low -- °F
--% Chance of Precip.
Yesterday
High -- | Low -- °F
Precip. -- in
7:16 AM 5:52 PM
Waning Crescent, 11% visible
Pressure 29.73 in
Visibility 10.0 miles
Clouds Clear
Dew Point 45 °F
Humidity 93%
Rainfall 0.00 in
Snow Depth Not available.
UV 0 out of 12
Pollen 2.90 out of 12
PM2.5 Moderate
Flu Activity Sporadic
METAR KGEG 201253Z 06005KT 10SM CLR 08/07 A2974 RMK AO2 SLP067 T00830072

More Conditions Fewer Conditions

Pressure 29.73 in
Visibility 10.0 miles
Clouds Clear
Dew Point 45 °F
Humidity 93%
Rainfall 0.00 in
Snow Depth Not available.
UV 0 out of 12
Pollen 2.90 out of 12
PM2.5 Moderate
Flu Activity Sporadic
METAR KGEG 201253Z 06005KT 10SM CLR 08/07 A2974 RMK AO2 SLP067 T00830072

More Conditions Fewer Conditions

10-Day Weather Forecast

Almanac

Astronomy

Oct. 20, 2014 Rise Set
Actual Time 7:16 AM PDT 5:52 PM PDT
Civil Twilight 6:45 AM PDT 6:24 PM PDT
Nautical Twilight 6:09 AM PDT 6:59 PM PDT
Astronomical Twilight 5:33 AM PDT 7:35 PM PDT
Moon 3:56 AM PDT 4:28 PM PDT
Length of Visible Light 11h 38m
Length of Day
10h 36m
Waning Crescent, 11% of the Moon is Illuminated
Today
Waning Crescent
Oct 23
New
Oct 30
First Quarter
Nov 6
Full
Nov 14
Last Quarter

Today's Extremes

State Highs State Lows

Community

WunderPhotos

Upload Photos

1,763,363 photos uploaded!

Nearby

Air Quality

  Air Quality AQ Index Pollutant
Yesterday Good
PM10
Current Moderate
PM2.5
Monday Good
PM10
Monday Good
CO

Snow Depth

Station Depth Elevation
Quartz Peak 1 in 4700 ft
Bunchgrass Meadow 0 in 5000 ft
Moses Mountain 0 in 5300 ft
Sourdough Gulch 0 in 4000 ft
Spruce Springs 1 in 5700 ft

Earthquake Activity

City Distance Mag. Time & Date
No recent earthquake activity has been reported nearby.
Minimum magnitude displayed is 2.5.

Coastal Water Temperatures

Place Temperature
No Stations Reporting

Nearby Weather Stations